P/v Golden Gate — WDE5665 — position and weather

sailwx.info

Track history (hours):
 
Tides and Currents Weather Stations Pressure Air Temp Water Temp Dewpoint Dewpoint Depression Visibility Wind Speed Wind Dir Waves Ship Positions

P/v Golden Gate

Owner: San Francisco Bar Pilots Benevolent and Protective, San Francisco, CA. More information available from US FCC via Universal Licensing System and Coast Guard Vessel Documentation Center.

Last reported at 2018-Apr-26 17:01 UTC. Time now 2018-Apr-26 17:01 UTC.
Position N 37°48' W 122°24'.

Length 21 m.

Type: Pilot. MMSI: 367370010.

Date/timePositionNaut miles runAvg speedWind from/ knotsBaromVisibWave heightAir tempDewpointWater temp
2018-Apr-26 17:01N 37°48' W 122°24'0 0.0
2018-Apr-26 16:30N 37°48' W 122°24'0 0.0
2018-Apr-26 15:58N 37°48' W 122°24'0 0.0
2018-Apr-26 15:30N 37°48' W 122°24'0 0.0
2018-Apr-26 15:00N 37°48' W 122°24'4 8.5
2018-Apr-26 14:31N 37°45' W 122°20'510.6
2018-Apr-26 14:00N 37°49' W 122°25'4 7.4
2018-Apr-26 13:30N 37°48' W 122°21'3 6.2
2018-Apr-26 13:01N 37°45' W 122°21'3 6.1
2018-Apr-26 12:30N 37°48' W 122°19'815.8
2018-Apr-26 12:00N 37°49' W 122°29'611.5
2018-Apr-26 11:30N 37°47' W 122°22'2 4.4
2018-Apr-26 11:00N 37°49' W 122°20'1 3.0
2018-Apr-26 10:31N 37°48' W 122°22'1 2.4
2018-Apr-26 10:00N 37°48' W 122°23'4 7.3
2018-Apr-26 09:30N 37°45' W 122°21'2 4.7
2018-Apr-26 08:59N 37°43' W 122°20'612.7
2018-Apr-26 08:30N 37°48' W 122°24'0 0.2
2018-Apr-26 08:00N 37°48' W 122°24'0 0.0
2018-Apr-26 07:30N 37°48' W 122°24'0 0.0
2018-Apr-26 07:00N 37°48' W 122°24'2 4.9
2018-Apr-26 06:31N 37°47' W 122°21'2 4.7
2018-Apr-26 05:59N 37°48' W 122°24'0 0.0
2018-Apr-26 05:30N 37°48' W 122°24'0 0.0
2018-Apr-26 05:00N 37°48' W 122°24'0 0.0
2018-Apr-26 04:30N 37°48' W 122°24'0 0.0
2018-Apr-26 04:01N 37°48' W 122°24'1 3.0
2018-Apr-26 03:31N 37°49' W 122°25'4 7.4
2018-Apr-26 03:00N 37°49' W 122°20'3 5.8
2018-Apr-26 02:30N 37°48' W 122°24'611.6
2018-Apr-26 01:59N 37°43' W 122°20'612.2
2018-Apr-26 01:30N 37°48' W 122°24'0 0.0
2018-Apr-26 01:01N 37°48' W 122°24'0 0.0
2018-Apr-26 00:30N 37°48' W 122°24'4 7.8
2018-Apr-26 00:00N 37°46' W 122°20'2 4.8
2018-Apr-25 23:30N 37°48' W 122°19'3 5.0
2018-Apr-25 23:00N 37°48' W 122°22'1 2.1
2018-Apr-25 22:30N 37°48' W 122°21'2 4.7
2018-Apr-25 22:01N 37°48' W 122°24'0 0.0
2018-Apr-25 21:30N 37°48' W 122°24'0 0.0
2018-Apr-25 21:01N 37°48' W 122°24'0 0.0
2018-Apr-25 20:30N 37°48' W 122°24'0 0.0
2018-Apr-25 20:00N 37°48' W 122°24'0 0.0
2018-Apr-25 19:30N 37°48' W 122°24'0 0.0
2018-Apr-25 19:00N 37°48' W 122°24'0 0.0
2018-Apr-25 18:30N 37°48' W 122°24'0 0.0
2018-Apr-25 18:00N 37°48' W 122°24'1 1.5
2018-Apr-25 17:30N 37°48' W 122°23'3 5.5
2018-Apr-25 17:00N 37°48' W 122°19'1 1.0
2018-Apr-25 16:30N 37°48' W 122°20'2 4.2
2018-Apr-25 16:01N 37°47' W 122°23'1 2.7
2018-Apr-25 15:30N 37°48' W 122°24'0 0.0
2018-Apr-25 15:00N 37°48' W 122°24'0 0.0
2018-Apr-25 14:30N 37°48' W 122°24'0 0.0
2018-Apr-25 14:00N 37°48' W 122°24'0 0.0
2018-Apr-25 13:30N 37°48' W 122°24'510.1
2018-Apr-25 13:01N 37°48' W 122°30'4 8.8
2018-Apr-25 12:30N 37°47' W 122°35'1019.3
2018-Apr-25 12:00N 37°48' W 122°23'3 6.5
2018-Apr-25 11:31N 37°48' W 122°19'1 2.5
2018-Apr-25 11:00N 37°48' W 122°21'2 4.9
2018-Apr-25 10:30N 37°49' W 122°24'1 1.2
2018-Apr-25 10:00N 37°48' W 122°24'0 0.0
2018-Apr-25 09:30N 37°48' W 122°24'0 0.0
2018-Apr-25 09:00N 37°48' W 122°24'0 0.0
2018-Apr-25 08:30N 37°48' W 122°24'0 0.0
2018-Apr-25 08:00N 37°48' W 122°24'0 0.0
2018-Apr-25 07:30N 37°48' W 122°24'0 0.0
2018-Apr-25 07:00N 37°48' W 122°24'2 3.9
2018-Apr-25 06:30N 37°48' W 122°21'3 5.6
2018-Apr-25 06:00N 37°45' W 122°23'3 6.8
2018-Apr-25 05:30N 37°48' W 122°21'2 4.8
2018-Apr-25 05:00N 37°48' W 122°24'1 3.0
2018-Apr-25 04:30N 37°48' W 122°22'1 3.0
2018-Apr-25 04:00N 37°48' W 122°24'3 6.0
2018-Apr-25 03:31N 37°48' W 122°20'3 5.9
2018-Apr-25 03:01N 37°48' W 122°24'0 0.0
2018-Apr-25 02:30N 37°48' W 122°24'0 0.0
2018-Apr-25 02:00N 37°48' W 122°24'2 3.5
2018-Apr-25 01:30N 37°48' W 122°22'4 8.8
2018-Apr-25 01:00N 37°49' W 122°27'3 5.7
2018-Apr-25 00:30N 37°48' W 122°24'0 0.0
2018-Apr-25 00:00N 37°48' W 122°24'0 0.0
2018-Apr-24 23:30N 37°48' W 122°24'0 0.0
2018-Apr-24 23:00N 37°48' W 122°24'510.6
2018-Apr-24 22:31N 37°44' W 122°20'510.1
2018-Apr-24 22:00N 37°49' W 122°20'2 3.1
2018-Apr-24 21:30N 37°48' W 122°22'714.8
2018-Apr-24 21:00N 37°48' W 122°31'612.3
2018-Apr-24 20:30N 37°49' W 122°23'3 5.1
2018-Apr-24 20:00N 37°46' W 122°21'2 4.9
2018-Apr-24 19:30N 37°48' W 122°24'0 0.0
2018-Apr-24 19:01N 37°48' W 122°24'0 0.0
2018-Apr-24 18:30N 37°48' W 122°24'510.4
2018-Apr-24 18:00N 37°44' W 122°20'510.4
2018-Apr-24 17:30N 37°48' W 122°24'0 0.0
2018-Apr-24 17:00N 37°48' W 122°24'1 2.5
2018-Apr-24 16:30N 37°49' W 122°25'0 0.2
2018-Apr-24 16:00N 37°49' W 122°25'5 9.9
2018-Apr-24 15:30N 37°45' W 122°21'4 7.4
2018-Apr-24 15:01N 37°48' W 122°24'3 6.2
2018-Apr-24 14:30N 37°49' W 122°20'1 2.4
2018-Apr-24 14:00N 37°48' W 122°21'1 1.6
2018-Apr-24 13:31N 37°48' W 122°20'4 8.2
2018-Apr-24 13:01N 37°49' W 122°25'1 2.3
2018-Apr-24 12:30N 37°48' W 122°24'0 0.0
2018-Apr-24 12:01N 37°48' W 122°24'3 6.0
2018-Apr-24 11:30N 37°49' W 122°27'510.8
2018-Apr-24 11:00N 37°48' W 122°21'0 0.3
2018-Apr-24 10:30N 37°48' W 122°21'5 9.1
2018-Apr-24 10:00N 37°44' W 122°19'4 7.9
2018-Apr-24 09:30N 37°48' W 122°19'4 8.0
2018-Apr-24 09:00N 37°48' W 122°24'0 0.0
2018-Apr-24 08:30N 37°48' W 122°24'713.2
2018-Apr-24 08:00N 37°48' W 122°32'2 3.2
2018-Apr-24 07:30N 37°47' W 122°34'816.1
2018-Apr-24 07:00N 37°48' W 122°24'0 0.0
2018-Apr-24 06:30N 37°48' W 122°24'0 0.0
2018-Apr-24 06:00N 37°48' W 122°24'0 0.0
2018-Apr-24 05:30N 37°48' W 122°24'0 0.0
2018-Apr-24 05:00N 37°48' W 122°24'5 9.5
2018-Apr-24 04:30N 37°44' W 122°20'5 9.5
2018-Apr-24 04:00N 37°48' W 122°24'1 2.9
2018-Apr-24 03:30N 37°49' W 122°25'1 2.9
2018-Apr-24 03:00N 37°48' W 122°24'0 0.0
2018-Apr-24 02:30N 37°48' W 122°24'0 0.0
2018-Apr-24 02:00N 37°48' W 122°24'0 0.0
2018-Apr-24 01:30N 37°48' W 122°24'0 0.0
2018-Apr-24 01:00N 37°48' W 122°24'0 0.0
2018-Apr-24 00:30N 37°48' W 122°24'0 0.0
2018-Apr-24 00:00N 37°48' W 122°24'0 0.0
2018-Apr-23 23:30N 37°48' W 122°24'0 0.0
2018-Apr-23 23:00N 37°48' W 122°24'2 4.8
2018-Apr-23 22:30N 37°48' W 122°21'3 5.4
2018-Apr-23 22:01N 37°50' W 122°23'4 7.7
2018-Apr-23 21:30N 37°46' W 122°21'3 5.9
2018-Apr-23 21:00N 37°48' W 122°24'0 0.0
2018-Apr-23 20:30N 37°48' W 122°24'0 0.6
2018-Apr-23 20:01N 37°48' W 122°24'1 1.6
2018-Apr-23 19:31N 37°48' W 122°23'1 1.9
2018-Apr-23 19:00N 37°48' W 122°24'2 4.2
2018-Apr-23 18:30N 37°48' W 122°21'2 4.2
2018-Apr-23 18:00N 37°48' W 122°24'0 0.0
2018-Apr-23 17:30N 37°48' W 122°24'4 8.5
2018-Apr-23 17:01N 37°48' W 122°18'510.2
2018-Apr-23 16:31N 37°49' W 122°25'1 1.0
2018-Apr-23 15:56N 37°49' W 122°25'512.3
2018-Apr-23 15:30N 37°48' W 122°19'0 0.2
2018-Apr-23 15:00N 37°48' W 122°19'1 1.4
2018-Apr-23 14:30N 37°48' W 122°20'0 0.8
2018-Apr-23 14:01N 37°48' W 122°20'1 1.6
2018-Apr-23 13:30N 37°48' W 122°19'1 1.9
2018-Apr-23 13:00N 37°48' W 122°18'0 1.0
2018-Apr-23 12:30N 37°48' W 122°18'4 8.4
2018-Apr-23 12:01N 37°48' W 122°24'2 3.3
2018-Apr-23 11:30N 37°49' W 122°25'1 1.5
2018-Apr-23 11:00N 37°49' W 122°26'2 4.7
2018-Apr-23 10:31N 37°49' W 122°29'1120.8
2018-Apr-23 10:00N 37°44' W 122°41'1021.2
2018-Apr-23 09:30N 37°48' W 122°30'5 9.1
2018-Apr-23 09:00N 37°48' W 122°24'0 0.0
2018-Apr-23 08:30N 37°48' W 122°24'0 0.0
2018-Apr-23 08:00N 37°48' W 122°24'0 0.0
2018-Apr-23 07:30N 37°48' W 122°24'2 4.5
2018-Apr-23 07:00N 37°47' W 122°21'2 4.5
2018-Apr-23 06:30N 37°48' W 122°24'0 0.0
2018-Apr-23 06:00N 37°48' W 122°24'0 0.0
2018-Apr-23 05:30N 37°48' W 122°24'0 0.0
2018-Apr-23 05:00N 37°48' W 122°24'0 0.0
2018-Apr-23 04:30N 37°48' W 122°24'0 0.0
2018-Apr-23 04:00N 37°48' W 122°24'2 3.4
2018-Apr-23 03:31N 37°48' W 122°22'1020.7
2018-Apr-23 03:01N 37°47' W 122°35'612.4
2018-Apr-23 02:30N 37°49' W 122°27'3 5.9
2018-Apr-23 02:00N 37°48' W 122°24'0 0.0
2018-Apr-23 01:30N 37°48' W 122°24'3 5.5
2018-Apr-23 01:00N 37°49' W 122°20'4 8.6
2018-Apr-23 00:31N 37°44' W 122°20'510.7
2018-Apr-23 00:00N 37°49' W 122°24'1 1.5
2018-Apr-22 23:30N 37°49' W 122°25'1 2.8
2018-Apr-22 23:00N 37°48' W 122°24'0 0.0
2018-Apr-22 22:30N 37°48' W 122°24'0 0.0
2018-Apr-22 22:00N 37°48' W 122°24'2 4.0
2018-Apr-22 21:30N 37°47' W 122°21'2 4.0
2018-Apr-22 21:00N 37°48' W 122°24'0 0.0
2018-Apr-22 20:30N 37°48' W 122°24'0 0.0
2018-Apr-22 20:00N 37°48' W 122°24'0 0.0
2018-Apr-22 19:30N 37°48' W 122°24'0 0.0
2018-Apr-22 19:00N 37°48' W 122°24'0 0.0
2018-Apr-22 18:30N 37°48' W 122°24'0 0.0
2018-Apr-22 18:00N 37°48' W 122°24'0 0.0
2018-Apr-22 17:30N 37°48' W 122°24'0 0.0
2018-Apr-22 17:00N 37°48' W 122°24'0 0.0
2018-Apr-22 16:30N 37°48' W 122°24'0 0.0
2018-Apr-22 16:00N 37°48' W 122°24'3 6.8
2018-Apr-22 15:31N 37°48' W 122°20'3 6.7
2018-Apr-22 15:00N 37°48' W 122°24'0 0.0
2018-Apr-22 14:30N 37°48' W 122°24'4 7.6
2018-Apr-22 14:01N 37°49' W 122°28'4 8.4
2018-Apr-22 13:30N 37°48' W 122°23'0 1.0
2018-Apr-22 13:00N 37°48' W 122°24'0 0.0
2018-Apr-22 12:31N 37°48' W 122°24'0 0.0
2018-Apr-22 12:01N 37°48' W 122°24'0 0.0
2018-Apr-22 11:31N 37°48' W 122°24'0 0.0
2018-Apr-22 11:00N 37°48' W 122°24'0 0.0
2018-Apr-22 10:30N 37°48' W 122°24'0 0.0
2018-Apr-22 10:00N 37°48' W 122°24'0 0.0
2018-Apr-22 09:31N 37°48' W 122°24'510.5
2018-Apr-22 09:00N 37°44' W 122°20'714.3
2018-Apr-22 08:31N 37°49' W 122°26'2 4.1
2018-Apr-22 08:00N 37°48' W 122°24'0 0.3
2018-Apr-22 07:30N 37°48' W 122°24'0 0.0
2018-Apr-22 07:01N 37°48' W 122°24'0 0.0
2018-Apr-22 06:30N 37°48' W 122°24'3 5.3
2018-Apr-22 06:00N 37°48' W 122°20'3 6.0
2018-Apr-22 05:30N 37°45' W 122°21'3 6.9
2018-Apr-22 05:00N 37°48' W 122°24'0 0.0
2018-Apr-22 04:31N 37°48' W 122°24'0 0.0
2018-Apr-22 04:00N 37°48' W 122°24'0 0.0
2018-Apr-22 03:31N 37°48' W 122°24'0 0.0
2018-Apr-22 03:01N 37°48' W 122°24'2 4.7
2018-Apr-22 02:30N 37°46' W 122°22'2 4.8
2018-Apr-22 02:00N 37°48' W 122°24'0 0.0
2018-Apr-22 01:30N 37°48' W 122°24'0 0.0
2018-Apr-22 01:00N 37°48' W 122°24'3 5.4
2018-Apr-22 00:31N 37°47' W 122°21'3 5.3
2018-Apr-22 00:00N 37°48' W 122°24'0 0.0
2018-Apr-21 23:30N 37°48' W 122°24'0 0.0
2018-Apr-21 23:00N 37°48' W 122°24'0 0.0
2018-Apr-21 22:30N 37°48' W 122°24'0 0.0
2018-Apr-21 22:00N 37°48' W 122°24'1 2.0
2018-Apr-21 21:31N 37°49' W 122°24'2 3.3
2018-Apr-21 21:01N 37°48' W 122°23'2 4.9
2018-Apr-21 20:31N 37°49' W 122°20'3 5.9
2018-Apr-21 20:01N 37°48' W 122°24'0 0.0
2018-Apr-21 19:30N 37°48' W 122°24'611.3
2018-Apr-21 19:00N 37°43' W 122°20'611.3
2018-Apr-21 18:30N 37°48' W 122°24'1 1.4
2018-Apr-21 18:00N 37°49' W 122°24'3 6.1
2018-Apr-21 17:31N 37°49' W 122°20'4 7.5
2018-Apr-21 17:00N 37°49' W 122°25'4 8.0
2018-Apr-21 16:31N 37°49' W 122°20'1019.2
2018-Apr-21 16:01N 37°48' W 122°32'2 4.0
2018-Apr-21 15:30N 37°49' W 122°30'815.3
2018-Apr-21 15:01N 37°46' W 122°21'2 4.0
2018-Apr-21 14:31N 37°48' W 122°19'0 0.7
2018-Apr-21 14:01N 37°48' W 122°20'1 1.6
2018-Apr-21 13:31N 37°49' W 122°20'3 6.8
2018-Apr-21 13:00N 37°48' W 122°24'0 0.1
2018-Apr-21 12:30N 37°48' W 122°24'1 1.7
2018-Apr-21 12:00N 37°48' W 122°23'3 6.1
2018-Apr-21 11:30N 37°49' W 122°26'4 8.2
2018-Apr-21 11:01N 37°48' W 122°21'4 8.7
2018-Apr-21 10:31N 37°44' W 122°20'3 6.3
2018-Apr-21 10:00N 37°47' W 122°21'0 0.8
2018-Apr-21 09:30N 37°47' W 122°21'2 4.3
2018-Apr-21 09:00N 37°48' W 122°24'0 0.0
2018-Apr-21 08:30N 37°48' W 122°24'0 0.2
2018-Apr-21 08:00N 37°48' W 122°24'2 3.7
2018-Apr-21 07:31N 37°48' W 122°21'2 3.8
2018-Apr-21 07:00N 37°48' W 122°24'0 0.0
2018-Apr-21 06:31N 37°48' W 122°24'0 0.0
2018-Apr-21 06:01N 37°48' W 122°24'0 0.0
2018-Apr-21 05:30N 37°48' W 122°24'0 0.0
2018-Apr-21 05:01N 37°48' W 122°24'0 0.0
2018-Apr-21 04:30N 37°48' W 122°24'1 1.7
2018-Apr-21 04:00N 37°48' W 122°23'611.5
2018-Apr-21 03:30N 37°48' W 122°30'611.1
2018-Apr-21 03:00N 37°46' W 122°37'1020.5
2018-Apr-21 02:30N 37°48' W 122°24'0 0.0
2018-Apr-21 02:00N 37°48' W 122°24'4 7.1
2018-Apr-21 01:30N 37°48' W 122°19'4 7.1
2018-Apr-21 01:00N 37°48' W 122°24'0 0.0
2018-Apr-21 00:31N 37°48' W 122°24'0 0.0
2018-Apr-21 00:01N 37°48' W 122°24'3 5.9
2018-Apr-20 23:30N 37°48' W 122°20'3 5.9
2018-Apr-20 23:00N 37°48' W 122°24'0 0.0
2018-Apr-20 22:30N 37°48' W 122°24'0 0.0
2018-Apr-20 22:00N 37°48' W 122°24'0 0.0
2018-Apr-20 21:30N 37°48' W 122°24'0 0.0
2018-Apr-20 21:00N 37°48' W 122°24'0 0.0
2018-Apr-20 20:30N 37°48' W 122°24'0 0.0
2018-Apr-20 20:00N 37°48' W 122°24'0 0.0
2018-Apr-20 19:30N 37°48' W 122°24'0 0.0
2018-Apr-20 19:00N 37°48' W 122°24'2 4.4
2018-Apr-20 18:30N 37°48' W 122°21'2 4.4
2018-Apr-20 18:00N 37°48' W 122°24'0 0.0
2018-Apr-20 17:30N 37°48' W 122°24'0 0.0
2018-Apr-20 17:01N 37°48' W 122°24'1 2.4
2018-Apr-20 16:30N 37°49' W 122°25'1 1.3
2018-Apr-20 16:00N 37°49' W 122°25'2 3.3
2018-Apr-20 15:30N 37°48' W 122°24'0 0.0
2018-Apr-20 15:00N 37°48' W 122°24'0 0.0
2018-Apr-20 14:30N 37°48' W 122°24'0 0.0
2018-Apr-20 14:00N 37°48' W 122°24'0 0.0
2018-Apr-20 13:30N 37°48' W 122°24'0 0.0
2018-Apr-20 13:00N 37°48' W 122°24'3 6.7
2018-Apr-20 12:30N 37°49' W 122°20'4 8.4
2018-Apr-20 12:01N 37°45' W 122°20'2 3.2
2018-Apr-20 11:30N 37°45' W 122°22'3 6.8
2018-Apr-20 11:00N 37°48' W 122°19'4 7.1
2018-Apr-20 10:30N 37°48' W 122°24'1 1.7
2018-Apr-20 10:01N 37°49' W 122°24'4 7.0
2018-Apr-20 09:30N 37°49' W 122°29'4 7.9
2018-Apr-20 09:00N 37°48' W 122°24'4 7.1
2018-Apr-20 08:30N 37°48' W 122°19'4 8.9
2018-Apr-20 08:01N 37°44' W 122°21'510.1
2018-Apr-20 07:30N 37°48' W 122°24'0 0.0
2018-Apr-20 07:00N 37°48' W 122°24'0 0.0
2018-Apr-20 06:30N 37°48' W 122°24'0 0.0
2018-Apr-20 06:00N 37°48' W 122°24'0 0.0
2018-Apr-20 05:30N 37°48' W 122°24'0 0.0
2018-Apr-20 05:00N 37°48' W 122°24'0 0.0
2018-Apr-20 04:29N 37°48' W 122°24'0 0.1
2018-Apr-20 04:01N 37°48' W 122°24'715.0
2018-Apr-20 03:31N 37°47' W 122°33'2 4.6
2018-Apr-20 03:00N 37°47' W 122°36'510.5
2018-Apr-20 02:30N 37°49' W 122°30'714.0
2018-Apr-20 02:00N 37°47' W 122°21'2 4.7
2018-Apr-20 01:31N 37°48' W 122°24'2 3.7
2018-Apr-20 01:01N 37°49' W 122°26'1 2.2
2018-Apr-20 00:30N 37°49' W 122°24'4 8.3
2018-Apr-20 00:01N 37°46' W 122°21'3 6.5
2018-Apr-19 23:30N 37°48' W 122°24'510.5
2018-Apr-19 23:00N 37°44' W 122°20'510.5
2018-Apr-19 22:31N 37°48' W 122°24'3 6.6
2018-Apr-19 22:00N 37°45' W 122°21'1 2.7
2018-Apr-19 21:30N 37°47' W 122°22'2 4.2
2018-Apr-19 21:00N 37°48' W 122°24'0 0.0
2018-Apr-19 20:30N 37°48' W 122°24'0 0.0
2018-Apr-19 19:58N 37°48' W 122°24'0 0.0
2018-Apr-19 19:30N 37°48' W 122°24'0 0.0
2018-Apr-19 19:00N 37°48' W 122°24'510.3
2018-Apr-19 18:30N 37°44' W 122°20'510.3
2018-Apr-19 18:00N 37°48' W 122°24'0 0.0
2018-Apr-19 17:30N 37°48' W 122°24'0 0.0
2018-Apr-19 17:00N 37°48' W 122°24'1 2.5
2018-Apr-19 16:31N 37°49' W 122°25'0 0.1
2018-Apr-19 16:00N 37°49' W 122°25'714.9
2018-Apr-19 15:30N 37°47' W 122°34'2 3.3
2018-Apr-19 15:00N 37°48' W 122°32'1019.6
2018-Apr-19 14:31N 37°49' W 122°20'3 5.8
2018-Apr-19 14:00N 37°48' W 122°24'0 0.0
2018-Apr-19 13:30N 37°48' W 122°24'0 0.0
2018-Apr-19 13:01N 37°48' W 122°24'0 0.2
2018-Apr-19 12:30N 37°48' W 122°24'1 2.8
2018-Apr-19 12:01N 37°49' W 122°25'3 6.4
2018-Apr-19 11:30N 37°47' W 122°22'5 9.3
2018-Apr-19 11:00N 37°49' W 122°27'612.4
2018-Apr-19 10:30N 37°49' W 122°19'714.4
2018-Apr-19 10:00N 37°49' W 122°29'918.6
2018-Apr-19 09:31N 37°45' W 122°39'1122.1
2018-Apr-19 09:01N 37°49' W 122°26'5 8.9
2018-Apr-19 08:30N 37°48' W 122°21'510.6
2018-Apr-19 08:00N 37°43' W 122°19'712.8
2018-Apr-19 07:30N 37°48' W 122°24'0 0.0
2018-Apr-19 07:00N 37°48' W 122°24'0 0.0
2018-Apr-19 06:30N 37°48' W 122°24'0 0.0
2018-Apr-19 05:59N 37°48' W 122°24'0 0.0
2018-Apr-19 05:30N 37°48' W 122°24'3 5.2
2018-Apr-19 05:00N 37°47' W 122°21'3 5.2
2018-Apr-19 04:30N 37°48' W 122°24'0 0.1
2018-Apr-19 04:00N 37°48' W 122°24'0 0.0
2018-Apr-19 03:30N 37°48' W 122°24'0 0.0
2018-Apr-19 03:00N 37°48' W 122°24'2 4.8
2018-Apr-19 02:30N 37°48' W 122°21'1 1.1
2018-Apr-19 02:01N 37°48' W 122°21'4 7.3
2018-Apr-19 01:30N 37°49' W 122°26'714.6
2018-Apr-19 01:00N 37°43' W 122°20'4 9.0
2018-Apr-19 00:30N 37°48' W 122°20'3 6.0
2018-Apr-19 00:00N 37°48' W 122°24'0 0.0
2018-Apr-18 23:30N 37°48' W 122°24'0 0.0
2018-Apr-18 23:00N 37°48' W 122°24'0 0.0
2018-Apr-18 22:30N 37°48' W 122°24'1 2.5
2018-Apr-18 22:00N 37°49' W 122°25'0 0.0
2018-Apr-18 21:30N 37°49' W 122°25'4 7.5
2018-Apr-18 21:00N 37°47' W 122°21'611.6
2018-Apr-18 20:30N 37°49' W 122°28'1122.3
2018-Apr-18 20:00N 37°45' W 122°41'1019.2
2018-Apr-18 19:30N 37°49' W 122°30'5 9.4
2018-Apr-18 19:00N 37°48' W 122°24'0 0.0
2018-Apr-18 18:30N 37°48' W 122°24'0 0.0
2018-Apr-18 18:00N 37°48' W 122°24'0 0.0
2018-Apr-18 17:30N 37°48' W 122°24'0 0.0
2018-Apr-18 17:00N 37°48' W 122°24'0 0.0
2018-Apr-18 16:30N 37°48' W 122°24'0 0.0
2018-Apr-18 16:00N 37°48' W 122°24'0 0.0
2018-Apr-18 15:30N 37°48' W 122°24'0 0.0
2018-Apr-18 15:00N 37°48' W 122°24'0 0.0
2018-Apr-18 14:30N 37°48' W 122°24'1 1.4
2018-Apr-18 14:00N 37°49' W 122°23'1 1.3
2018-Apr-18 13:31N 37°48' W 122°24'4 7.4
2018-Apr-18 13:01N 37°48' W 122°19'4 7.4
2018-Apr-18 12:30N 37°48' W 122°24'0 0.0
2018-Apr-18 12:00N 37°48' W 122°24'0 0.0
2018-Apr-18 11:30N 37°48' W 122°24'3 5.5
2018-Apr-18 11:00N 37°46' W 122°21'3 5.5
2018-Apr-18 10:30N 37°48' W 122°24'0 0.0
2018-Apr-18 10:00N 37°48' W 122°24'0 0.0
2018-Apr-18 09:30N 37°48' W 122°24'0 0.0
2018-Apr-18 09:00N 37°48' W 122°24'0 0.0
2018-Apr-18 08:30N 37°48' W 122°24'0 0.0
2018-Apr-18 08:00N 37°48' W 122°24'0 0.0
2018-Apr-18 07:30N 37°48' W 122°24'0 0.0
2018-Apr-18 07:00N 37°48' W 122°24'0 0.0
2018-Apr-18 06:30N 37°48' W 122°24'0 0.0
2018-Apr-18 06:00N 37°48' W 122°24'0 0.0
2018-Apr-18 05:30N 37°48' W 122°24'4 8.1
2018-Apr-18 05:01N 37°48' W 122°19'612.3
2018-Apr-18 04:30N 37°49' W 122°26'2 4.4
2018-Apr-18 04:00N 37°48' W 122°24'0 0.0
2018-Apr-18 03:30N 37°48' W 122°24'0 0.0
2018-Apr-18 03:00N 37°48' W 122°24'0 0.0
2018-Apr-18 02:30N 37°48' W 122°24'0 0.0
2018-Apr-18 02:00N 37°48' W 122°24'0 0.0
2018-Apr-18 01:30N 37°48' W 122°24'0 0.0
2018-Apr-18 01:00N 37°48' W 122°24'0 0.0
2018-Apr-18 00:30N 37°48' W 122°24'0 0.0
2018-Apr-18 00:00N 37°48' W 122°24'2 4.4
2018-Apr-17 23:31N 37°48' W 122°21'2 3.0
2018-Apr-17 23:00N 37°48' W 122°23'1 1.4
2018-Apr-17 22:30N 37°48' W 122°24'0 0.0
2018-Apr-17 22:00N 37°48' W 122°24'0 0.0
2018-Apr-17 21:30N 37°48' W 122°24'1 2.8
2018-Apr-17 21:00N 37°48' W 122°22'4 8.8
2018-Apr-17 20:30N 37°49' W 122°28'3 6.9
2018-Apr-17 20:00N 37°48' W 122°23'1 1.0
2018-Apr-17 19:30N 37°48' W 122°24'0 0.0
2018-Apr-17 19:00N 37°48' W 122°24'3 6.9
2018-Apr-17 18:30N 37°49' W 122°28'510.8
2018-Apr-17 18:00N 37°48' W 122°21'1 1.7
2018-Apr-17 17:30N 37°49' W 122°20'2 4.3
2018-Apr-17 17:00N 37°47' W 122°21'3 5.3
2018-Apr-17 16:30N 37°48' W 122°24'0 0.2
2018-Apr-17 16:00N 37°48' W 122°24'0 0.3
2018-Apr-17 15:30N 37°48' W 122°24'4 8.5
2018-Apr-17 15:00N 37°48' W 122°18'0 0.0
2018-Apr-17 14:30N 37°48' W 122°18'2 4.5
2018-Apr-17 14:00N 37°48' W 122°21'2 3.8
2018-Apr-17 13:30N 37°48' W 122°19'0 0.2
2018-Apr-17 13:00N 37°48' W 122°19'4 7.8
2018-Apr-17 12:30N 37°48' W 122°24'4 7.3
2018-Apr-17 12:01N 37°48' W 122°19'4 7.1
2018-Apr-17 11:31N 37°48' W 122°24'3 5.5
2018-Apr-17 11:00N 37°46' W 122°21'3 5.3
2018-Apr-17 10:29N 37°48' W 122°24'0 0.0
2018-Apr-17 10:00N 37°48' W 122°24'1 2.3
2018-Apr-17 09:30N 37°47' W 122°23'1 2.4
2018-Apr-17 09:01N 37°46' W 122°22'815.8
2018-Apr-17 08:30N 37°54' W 122°26'611.2
2018-Apr-17 08:00N 37°48' W 122°24'0 0.0
2018-Apr-17 07:30N 37°48' W 122°24'0 0.0
2018-Apr-17 07:00N 37°48' W 122°24'3 5.3
2018-Apr-17 06:30N 37°48' W 122°20'5 9.3
2018-Apr-17 06:01N 37°44' W 122°20'5 9.9
2018-Apr-17 05:29N 37°48' W 122°24'0 0.8
2018-Apr-17 05:00N 37°48' W 122°24'0 0.7
2018-Apr-17 04:30N 37°48' W 122°24'0 0.0
2018-Apr-17 04:00N 37°48' W 122°24'0 0.2
2018-Apr-17 03:30N 37°48' W 122°24'5 9.9
2018-Apr-17 03:00N 37°44' W 122°20'5 9.9
2018-Apr-17 02:31N 37°48' W 122°24'0 0.0
2018-Apr-17 02:00N 37°48' W 122°24'0 0.0
2018-Apr-17 01:31N 37°48' W 122°24'0 0.0
2018-Apr-17 01:00N 37°48' W 122°24'0 0.0
2018-Apr-17 00:30N 37°48' W 122°24'0 0.0
2018-Apr-17 00:00N 37°48' W 122°24'0 0.0
2018-Apr-16 23:30N 37°48' W 122°24'0 0.0
2018-Apr-16 23:00N 37°48' W 122°24'0 0.0
2018-Apr-16 22:30N 37°48' W 122°24'0 0.0
2018-Apr-16 22:00N 37°48' W 122°24'0 0.0
2018-Apr-16 21:29N 37°48' W 122°24'0 0.0
2018-Apr-16 21:00N 37°48' W 122°24'0 0.0
2018-Apr-16 20:30N 37°48' W 122°24'917.7
2018-Apr-16 20:01N 37°47' W 122°35'3 6.0
2018-Apr-16 19:31N 37°48' W 122°31'611.9
2018-Apr-16 19:00N 37°48' W 122°24'2 3.9
2018-Apr-16 18:30N 37°48' W 122°21'2 3.9
2018-Apr-16 18:00N 37°46' W 122°21'3 6.0
2018-Apr-16 17:30N 37°48' W 122°24'  
Track history (hours):
 
Tides and Currents Weather Stations Pressure Air Temp Water Temp Dewpoint Dewpoint Depression Visibility Wind Speed Wind Dir Waves Ship Positions

P/v Golden Gate

Owner: San Francisco Bar Pilots Benevolent and Protective, San Francisco, CA. More information available from US FCC via Universal Licensing System and Coast Guard Vessel Documentation Center.

Last reported at 2018-Apr-26 17:01 UTC. Time now 2018-Apr-26 17:01 UTC.
Position N 37°48' W 122°24'.

Length 21 m.

Type: Pilot. MMSI: 367370010.

Date/timePositionNaut miles runAvg speedWind from/ knotsBaromVisibWave heightAir tempDewpointWater temp
2018-Apr-26 17:01N 37°48' W 122°24'0 0.0
2018-Apr-26 16:30N 37°48' W 122°24'0 0.0
2018-Apr-26 15:58N 37°48' W 122°24'0 0.0
2018-Apr-26 15:30N 37°48' W 122°24'0 0.0
2018-Apr-26 15:00N 37°48' W 122°24'4 8.5
2018-Apr-26 14:31N 37°45' W 122°20'510.6
2018-Apr-26 14:00N 37°49' W 122°25'4 7.4
2018-Apr-26 13:30N 37°48' W 122°21'3 6.2
2018-Apr-26 13:01N 37°45' W 122°21'3 6.1
2018-Apr-26 12:30N 37°48' W 122°19'815.8
2018-Apr-26 12:00N 37°49' W 122°29'611.5
2018-Apr-26 11:30N 37°47' W 122°22'2 4.4
2018-Apr-26 11:00N 37°49' W 122°20'1 3.0
2018-Apr-26 10:31N 37°48' W 122°22'1 2.4
2018-Apr-26 10:00N 37°48' W 122°23'4 7.3
2018-Apr-26 09:30N 37°45' W 122°21'2 4.7
2018-Apr-26 08:59N 37°43' W 122°20'612.7
2018-Apr-26 08:30N 37°48' W 122°24'0 0.2
2018-Apr-26 08:00N 37°48' W 122°24'0 0.0
2018-Apr-26 07:30N 37°48' W 122°24'0 0.0
2018-Apr-26 07:00N 37°48' W 122°24'2 4.9
2018-Apr-26 06:31N 37°47' W 122°21'2 4.7
2018-Apr-26 05:59N 37°48' W 122°24'0 0.0
2018-Apr-26 05:30N 37°48' W 122°24'0 0.0
2018-Apr-26 05:00N 37°48' W 122°24'0 0.0
2018-Apr-26 04:30N 37°48' W 122°24'0 0.0
2018-Apr-26 04:01N 37°48' W 122°24'1 3.0
2018-Apr-26 03:31N 37°49' W 122°25'4 7.4
2018-Apr-26 03:00N 37°49' W 122°20'3 5.8
2018-Apr-26 02:30N 37°48' W 122°24'611.6
2018-Apr-26 01:59N 37°43' W 122°20'612.2
2018-Apr-26 01:30N 37°48' W 122°24'0 0.0
2018-Apr-26 01:01N 37°48' W 122°24'0 0.0
2018-Apr-26 00:30N 37°48' W 122°24'4 7.8
2018-Apr-26 00:00N 37°46' W 122°20'2 4.8
2018-Apr-25 23:30N 37°48' W 122°19'3 5.0
2018-Apr-25 23:00N 37°48' W 122°22'1 2.1
2018-Apr-25 22:30N 37°48' W 122°21'2 4.7
2018-Apr-25 22:01N 37°48' W 122°24'0 0.0
2018-Apr-25 21:30N 37°48' W 122°24'0 0.0
2018-Apr-25 21:01N 37°48' W 122°24'0 0.0
2018-Apr-25 20:30N 37°48' W 122°24'0 0.0
2018-Apr-25 20:00N 37°48' W 122°24'0 0.0
2018-Apr-25 19:30N 37°48' W 122°24'0 0.0
2018-Apr-25 19:00N 37°48' W 122°24'0 0.0
2018-Apr-25 18:30N 37°48' W 122°24'0 0.0
2018-Apr-25 18:00N 37°48' W 122°24'1 1.5
2018-Apr-25 17:30N 37°48' W 122°23'3 5.5
2018-Apr-25 17:00N 37°48' W 122°19'1 1.0
2018-Apr-25 16:30N 37°48' W 122°20'2 4.2
2018-Apr-25 16:01N 37°47' W 122°23'1 2.7
2018-Apr-25 15:30N 37°48' W 122°24'0 0.0
2018-Apr-25 15:00N 37°48' W 122°24'0 0.0
2018-Apr-25 14:30N 37°48' W 122°24'0 0.0
2018-Apr-25 14:00N 37°48' W 122°24'0 0.0
2018-Apr-25 13:30N 37°48' W 122°24'510.1
2018-Apr-25 13:01N 37°48' W 122°30'4 8.8
2018-Apr-25 12:30N 37°47' W 122°35'1019.3
2018-Apr-25 12:00N 37°48' W 122°23'3 6.5
2018-Apr-25 11:31N 37°48' W 122°19'1 2.5
2018-Apr-25 11:00N 37°48' W 122°21'2 4.9
2018-Apr-25 10:30N 37°49' W 122°24'1 1.2
2018-Apr-25 10:00N 37°48' W 122°24'0 0.0
2018-Apr-25 09:30N 37°48' W 122°24'0 0.0
2018-Apr-25 09:00N 37°48' W 122°24'0 0.0
2018-Apr-25 08:30N 37°48' W 122°24'0 0.0
2018-Apr-25 08:00N 37°48' W 122°24'0 0.0
2018-Apr-25 07:30N 37°48' W 122°24'0 0.0
2018-Apr-25 07:00N 37°48' W 122°24'2 3.9
2018-Apr-25 06:30N 37°48' W 122°21'3 5.6
2018-Apr-25 06:00N 37°45' W 122°23'3 6.8
2018-Apr-25 05:30N 37°48' W 122°21'2 4.8
2018-Apr-25 05:00N 37°48' W 122°24'1 3.0
2018-Apr-25 04:30N 37°48' W 122°22'1 3.0
2018-Apr-25 04:00N 37°48' W 122°24'3 6.0
2018-Apr-25 03:31N 37°48' W 122°20'3 5.9
2018-Apr-25 03:01N 37°48' W 122°24'0 0.0
2018-Apr-25 02:30N 37°48' W 122°24'0 0.0
2018-Apr-25 02:00N 37°48' W 122°24'2 3.5
2018-Apr-25 01:30N 37°48' W 122°22'4 8.8
2018-Apr-25 01:00N 37°49' W 122°27'3 5.7
2018-Apr-25 00:30N 37°48' W 122°24'0 0.0
2018-Apr-25 00:00N 37°48' W 122°24'0 0.0
2018-Apr-24 23:30N 37°48' W 122°24'0 0.0
2018-Apr-24 23:00N 37°48' W 122°24'510.6
2018-Apr-24 22:31N 37°44' W 122°20'510.1
2018-Apr-24 22:00N 37°49' W 122°20'2 3.1
2018-Apr-24 21:30N 37°48' W 122°22'714.8
2018-Apr-24 21:00N 37°48' W 122°31'612.3
2018-Apr-24 20:30N 37°49' W 122°23'3 5.1
2018-Apr-24 20:00N 37°46' W 122°21'2 4.9
2018-Apr-24 19:30N 37°48' W 122°24'0 0.0
2018-Apr-24 19:01N 37°48' W 122°24'0 0.0
2018-Apr-24 18:30N 37°48' W 122°24'510.4
2018-Apr-24 18:00N 37°44' W 122°20'510.4
2018-Apr-24 17:30N 37°48' W 122°24'0 0.0
2018-Apr-24 17:00N 37°48' W 122°24'1 2.5
2018-Apr-24 16:30N 37°49' W 122°25'0 0.2
2018-Apr-24 16:00N 37°49' W 122°25'5 9.9
2018-Apr-24 15:30N 37°45' W 122°21'4 7.4
2018-Apr-24 15:01N 37°48' W 122°24'3 6.2
2018-Apr-24 14:30N 37°49' W 122°20'1 2.4
2018-Apr-24 14:00N 37°48' W 122°21'1 1.6
2018-Apr-24 13:31N 37°48' W 122°20'4 8.2
2018-Apr-24 13:01N 37°49' W 122°25'1 2.3
2018-Apr-24 12:30N 37°48' W 122°24'0 0.0
2018-Apr-24 12:01N 37°48' W 122°24'3 6.0
2018-Apr-24 11:30N 37°49' W 122°27'510.8
2018-Apr-24 11:00N 37°48' W 122°21'0 0.3
2018-Apr-24 10:30N 37°48' W 122°21'5 9.1
2018-Apr-24 10:00N 37°44' W 122°19'4 7.9
2018-Apr-24 09:30N 37°48' W 122°19'4 8.0
2018-Apr-24 09:00N 37°48' W 122°24'0 0.0
2018-Apr-24 08:30N 37°48' W 122°24'713.2
2018-Apr-24 08:00N 37°48' W 122°32'2 3.2
2018-Apr-24 07:30N 37°47' W 122°34'816.1
2018-Apr-24 07:00N 37°48' W 122°24'0 0.0
2018-Apr-24 06:30N 37°48' W 122°24'0 0.0
2018-Apr-24 06:00N 37°48' W 122°24'0 0.0
2018-Apr-24 05:30N 37°48' W 122°24'0 0.0
2018-Apr-24 05:00N 37°48' W 122°24'5 9.5
2018-Apr-24 04:30N 37°44' W 122°20'5 9.5
2018-Apr-24 04:00N 37°48' W 122°24'1 2.9
2018-Apr-24 03:30N 37°49' W 122°25'1 2.9
2018-Apr-24 03:00N 37°48' W 122°24'0 0.0
2018-Apr-24 02:30N 37°48' W 122°24'0 0.0
2018-Apr-24 02:00N 37°48' W 122°24'0 0.0
2018-Apr-24 01:30N 37°48' W 122°24'0 0.0
2018-Apr-24 01:00N 37°48' W 122°24'0 0.0
2018-Apr-24 00:30N 37°48' W 122°24'0 0.0
2018-Apr-24 00:00N 37°48' W 122°24'0 0.0
2018-Apr-23 23:30N 37°48' W 122°24'0 0.0
2018-Apr-23 23:00N 37°48' W 122°24'2 4.8
2018-Apr-23 22:30N 37°48' W 122°21'3 5.4
2018-Apr-23 22:01N 37°50' W 122°23'4 7.7
2018-Apr-23 21:30N 37°46' W 122°21'3 5.9
2018-Apr-23 21:00N 37°48' W 122°24'0 0.0
2018-Apr-23 20:30N 37°48' W 122°24'0 0.6
2018-Apr-23 20:01N 37°48' W 122°24'1 1.6
2018-Apr-23 19:31N 37°48' W 122°23'1 1.9
2018-Apr-23 19:00N 37°48' W 122°24'2 4.2
2018-Apr-23 18:30N 37°48' W 122°21'2 4.2
2018-Apr-23 18:00N 37°48' W 122°24'0 0.0
2018-Apr-23 17:30N 37°48' W 122°24'4 8.5
2018-Apr-23 17:01N 37°48' W 122°18'510.2
2018-Apr-23 16:31N 37°49' W 122°25'1 1.0
2018-Apr-23 15:56N 37°49' W 122°25'512.3
2018-Apr-23 15:30N 37°48' W 122°19'0 0.2
2018-Apr-23 15:00N 37°48' W 122°19'1 1.4
2018-Apr-23 14:30N 37°48' W 122°20'0 0.8
2018-Apr-23 14:01N 37°48' W 122°20'1 1.6
2018-Apr-23 13:30N 37°48' W 122°19'1 1.9
2018-Apr-23 13:00N 37°48' W 122°18'0 1.0
2018-Apr-23 12:30N 37°48' W 122°18'4 8.4
2018-Apr-23 12:01N 37°48' W 122°24'2 3.3
2018-Apr-23 11:30N 37°49' W 122°25'1 1.5
2018-Apr-23 11:00N 37°49' W 122°26'2 4.7
2018-Apr-23 10:31N 37°49' W 122°29'1120.8
2018-Apr-23 10:00N 37°44' W 122°41'1021.2
2018-Apr-23 09:30N 37°48' W 122°30'5 9.1
2018-Apr-23 09:00N 37°48' W 122°24'0 0.0
2018-Apr-23 08:30N 37°48' W 122°24'0 0.0
2018-Apr-23 08:00N 37°48' W 122°24'0 0.0
2018-Apr-23 07:30N 37°48' W 122°24'2 4.5
2018-Apr-23 07:00N 37°47' W 122°21'2 4.5
2018-Apr-23 06:30N 37°48' W 122°24'0 0.0
2018-Apr-23 06:00N 37°48' W 122°24'0 0.0
2018-Apr-23 05:30N 37°48' W 122°24'0 0.0
2018-Apr-23 05:00N 37°48' W 122°24'0 0.0
2018-Apr-23 04:30N 37°48' W 122°24'0 0.0
2018-Apr-23 04:00N 37°48' W 122°24'2 3.4
2018-Apr-23 03:31N 37°48' W 122°22'1020.7
2018-Apr-23 03:01N 37°47' W 122°35'612.4
2018-Apr-23 02:30N 37°49' W 122°27'3 5.9
2018-Apr-23 02:00N 37°48' W 122°24'0 0.0
2018-Apr-23 01:30N 37°48' W 122°24'3 5.5
2018-Apr-23 01:00N 37°49' W 122°20'4 8.6
2018-Apr-23 00:31N 37°44' W 122°20'510.7
2018-Apr-23 00:00N 37°49' W 122°24'1 1.5
2018-Apr-22 23:30N 37°49' W 122°25'1 2.8
2018-Apr-22 23:00N 37°48' W 122°24'0 0.0
2018-Apr-22 22:30N 37°48' W 122°24'0 0.0
2018-Apr-22 22:00N 37°48' W 122°24'2 4.0
2018-Apr-22 21:30N 37°47' W 122°21'2 4.0
2018-Apr-22 21:00N 37°48' W 122°24'0 0.0
2018-Apr-22 20:30N 37°48' W 122°24'0 0.0
2018-Apr-22 20:00N 37°48' W 122°24'0 0.0
2018-Apr-22 19:30N 37°48' W 122°24'0 0.0
2018-Apr-22 19:00N 37°48' W 122°24'0 0.0
2018-Apr-22 18:30N 37°48' W 122°24'0 0.0
2018-Apr-22 18:00N 37°48' W 122°24'0 0.0
2018-Apr-22 17:30N 37°48' W 122°24'0 0.0
2018-Apr-22 17:00N 37°48' W 122°24'0 0.0
2018-Apr-22 16:30N 37°48' W 122°24'0 0.0
2018-Apr-22 16:00N 37°48' W 122°24'3 6.8
2018-Apr-22 15:31N 37°48' W 122°20'3 6.7
2018-Apr-22 15:00N 37°48' W 122°24'0 0.0
2018-Apr-22 14:30N 37°48' W 122°24'4 7.6
2018-Apr-22 14:01N 37°49' W 122°28'4 8.4
2018-Apr-22 13:30N 37°48' W 122°23'0 1.0
2018-Apr-22 13:00N 37°48' W 122°24'0 0.0
2018-Apr-22 12:31N 37°48' W 122°24'0 0.0
2018-Apr-22 12:01N 37°48' W 122°24'0 0.0
2018-Apr-22 11:31N 37°48' W 122°24'0 0.0
2018-Apr-22 11:00N 37°48' W 122°24'0 0.0
2018-Apr-22 10:30N 37°48' W 122°24'0 0.0
2018-Apr-22 10:00N 37°48' W 122°24'0 0.0
2018-Apr-22 09:31N 37°48' W 122°24'510.5
2018-Apr-22 09:00N 37°44' W 122°20'714.3
2018-Apr-22 08:31N 37°49' W 122°26'2 4.1
2018-Apr-22 08:00N 37°48' W 122°24'0 0.3
2018-Apr-22 07:30N 37°48' W 122°24'0 0.0
2018-Apr-22 07:01N 37°48' W 122°24'0 0.0
2018-Apr-22 06:30N 37°48' W 122°24'3 5.3
2018-Apr-22 06:00N 37°48' W 122°20'3 6.0
2018-Apr-22 05:30N 37°45' W 122°21'3 6.9
2018-Apr-22 05:00N 37°48' W 122°24'0 0.0
2018-Apr-22 04:31N 37°48' W 122°24'0 0.0
2018-Apr-22 04:00N 37°48' W 122°24'0 0.0
2018-Apr-22 03:31N 37°48' W 122°24'0 0.0
2018-Apr-22 03:01N 37°48' W 122°24'2 4.7
2018-Apr-22 02:30N 37°46' W 122°22'2 4.8
2018-Apr-22 02:00N 37°48' W 122°24'0 0.0
2018-Apr-22 01:30N 37°48' W 122°24'0 0.0
2018-Apr-22 01:00N 37°48' W 122°24'3 5.4
2018-Apr-22 00:31N 37°47' W 122°21'3 5.3
2018-Apr-22 00:00N 37°48' W 122°24'0 0.0
2018-Apr-21 23:30N 37°48' W 122°24'0 0.0
2018-Apr-21 23:00N 37°48' W 122°24'0 0.0
2018-Apr-21 22:30N 37°48' W 122°24'0 0.0
2018-Apr-21 22:00N 37°48' W 122°24'1 2.0
2018-Apr-21 21:31N 37°49' W 122°24'2 3.3
2018-Apr-21 21:01N 37°48' W 122°23'2 4.9
2018-Apr-21 20:31N 37°49' W 122°20'3 5.9
2018-Apr-21 20:01N 37°48' W 122°24'0 0.0
2018-Apr-21 19:30N 37°48' W 122°24'611.3
2018-Apr-21 19:00N 37°43' W 122°20'611.3
2018-Apr-21 18:30N 37°48' W 122°24'1 1.4
2018-Apr-21 18:00N 37°49' W 122°24'3 6.1
2018-Apr-21 17:31N 37°49' W 122°20'4 7.5
2018-Apr-21 17:00N 37°49' W 122°25'4 8.0
2018-Apr-21 16:31N 37°49' W 122°20'1019.2
2018-Apr-21 16:01N 37°48' W 122°32'2 4.0
2018-Apr-21 15:30N 37°49' W 122°30'815.3
2018-Apr-21 15:01N 37°46' W 122°21'2 4.0
2018-Apr-21 14:31N 37°48' W 122°19'0 0.7
2018-Apr-21 14:01N 37°48' W 122°20'1 1.6
2018-Apr-21 13:31N 37°49' W 122°20'3 6.8
2018-Apr-21 13:00N 37°48' W 122°24'0 0.1
2018-Apr-21 12:30N 37°48' W 122°24'1 1.7
2018-Apr-21 12:00N 37°48' W 122°23'3 6.1
2018-Apr-21 11:30N 37°49' W 122°26'4 8.2
2018-Apr-21 11:01N 37°48' W 122°21'4 8.7
2018-Apr-21 10:31N 37°44' W 122°20'3 6.3
2018-Apr-21 10:00N 37°47' W 122°21'0 0.8
2018-Apr-21 09:30N 37°47' W 122°21'2 4.3
2018-Apr-21 09:00N 37°48' W 122°24'0 0.0
2018-Apr-21 08:30N 37°48' W 122°24'0 0.2
2018-Apr-21 08:00N 37°48' W 122°24'2 3.7
2018-Apr-21 07:31N 37°48' W 122°21'2 3.8
2018-Apr-21 07:00N 37°48' W 122°24'0 0.0
2018-Apr-21 06:31N 37°48' W 122°24'0 0.0
2018-Apr-21 06:01N 37°48' W 122°24'0 0.0
2018-Apr-21 05:30N 37°48' W 122°24'0 0.0
2018-Apr-21 05:01N 37°48' W 122°24'0 0.0
2018-Apr-21 04:30N 37°48' W 122°24'1 1.7
2018-Apr-21 04:00N 37°48' W 122°23'611.5
2018-Apr-21 03:30N 37°48' W 122°30'611.1
2018-Apr-21 03:00N 37°46' W 122°37'1020.5
2018-Apr-21 02:30N 37°48' W 122°24'0 0.0
2018-Apr-21 02:00N 37°48' W 122°24'4 7.1
2018-Apr-21 01:30N 37°48' W 122°19'4 7.1
2018-Apr-21 01:00N 37°48' W 122°24'0 0.0
2018-Apr-21 00:31N 37°48' W 122°24'0 0.0
2018-Apr-21 00:01N 37°48' W 122°24'3 5.9
2018-Apr-20 23:30N 37°48' W 122°20'3 5.9
2018-Apr-20 23:00N 37°48' W 122°24'0 0.0
2018-Apr-20 22:30N 37°48' W 122°24'0 0.0
2018-Apr-20 22:00N 37°48' W 122°24'0 0.0
2018-Apr-20 21:30N 37°48' W 122°24'0 0.0
2018-Apr-20 21:00N 37°48' W 122°24'0 0.0
2018-Apr-20 20:30N 37°48' W 122°24'0 0.0
2018-Apr-20 20:00N 37°48' W 122°24'0 0.0
2018-Apr-20 19:30N 37°48' W 122°24'0 0.0
2018-Apr-20 19:00N 37°48' W 122°24'2 4.4
2018-Apr-20 18:30N 37°48' W 122°21'2 4.4
2018-Apr-20 18:00N 37°48' W 122°24'0 0.0
2018-Apr-20 17:30N 37°48' W 122°24'0 0.0
2018-Apr-20 17:01N 37°48' W 122°24'1 2.4
2018-Apr-20 16:30N 37°49' W 122°25'1 1.3
2018-Apr-20 16:00N 37°49' W 122°25'2 3.3
2018-Apr-20 15:30N 37°48' W 122°24'0 0.0
2018-Apr-20 15:00N 37°48' W 122°24'0 0.0
2018-Apr-20 14:30N 37°48' W 122°24'0 0.0
2018-Apr-20 14:00N 37°48' W 122°24'0 0.0
2018-Apr-20 13:30N 37°48' W 122°24'0 0.0
2018-Apr-20 13:00N 37°48' W 122°24'3 6.7
2018-Apr-20 12:30N 37°49' W 122°20'4 8.4
2018-Apr-20 12:01N 37°45' W 122°20'2 3.2
2018-Apr-20 11:30N 37°45' W 122°22'3 6.8
2018-Apr-20 11:00N 37°48' W 122°19'4 7.1
2018-Apr-20 10:30N 37°48' W 122°24'1 1.7
2018-Apr-20 10:01N 37°49' W 122°24'4 7.0
2018-Apr-20 09:30N 37°49' W 122°29'4 7.9
2018-Apr-20 09:00N 37°48' W 122°24'4 7.1
2018-Apr-20 08:30N 37°48' W 122°19'4 8.9
2018-Apr-20 08:01N 37°44' W 122°21'510.1
2018-Apr-20 07:30N 37°48' W 122°24'0 0.0
2018-Apr-20 07:00N 37°48' W 122°24'0 0.0
2018-Apr-20 06:30N 37°48' W 122°24'0 0.0
2018-Apr-20 06:00N 37°48' W 122°24'0 0.0
2018-Apr-20 05:30N 37°48' W 122°24'0 0.0
2018-Apr-20 05:00N 37°48' W 122°24'0 0.0
2018-Apr-20 04:29N 37°48' W 122°24'0 0.1
2018-Apr-20 04:01N 37°48' W 122°24'715.0
2018-Apr-20 03:31N 37°47' W 122°33'2 4.6
2018-Apr-20 03:00N 37°47' W 122°36'510.5
2018-Apr-20 02:30N 37°49' W 122°30'714.0
2018-Apr-20 02:00N 37°47' W 122°21'2 4.7
2018-Apr-20 01:31N 37°48' W 122°24'2 3.7
2018-Apr-20 01:01N 37°49' W 122°26'1 2.2
2018-Apr-20 00:30N 37°49' W 122°24'4 8.3
2018-Apr-20 00:01N 37°46' W 122°21'3 6.5
2018-Apr-19 23:30N 37°48' W 122°24'510.5
2018-Apr-19 23:00N 37°44' W 122°20'510.5
2018-Apr-19 22:31N 37°48' W 122°24'3 6.6
2018-Apr-19 22:00N 37°45' W 122°21'1 2.7
2018-Apr-19 21:30N 37°47' W 122°22'2 4.2
2018-Apr-19 21:00N 37°48' W 122°24'0 0.0
2018-Apr-19 20:30N 37°48' W 122°24'0 0.0
2018-Apr-19 19:58N 37°48' W 122°24'0 0.0
2018-Apr-19 19:30N 37°48' W 122°24'0 0.0
2018-Apr-19 19:00N 37°48' W 122°24'510.3
2018-Apr-19 18:30N 37°44' W 122°20'510.3
2018-Apr-19 18:00N 37°48' W 122°24'0 0.0
2018-Apr-19 17:30N 37°48' W 122°24'0 0.0
2018-Apr-19 17:00N 37°48' W 122°24'1 2.5
2018-Apr-19 16:31N 37°49' W 122°25'0 0.1
2018-Apr-19 16:00N 37°49' W 122°25'714.9
2018-Apr-19 15:30N 37°47' W 122°34'2 3.3
2018-Apr-19 15:00N 37°48' W 122°32'1019.6
2018-Apr-19 14:31N 37°49' W 122°20'3 5.8
2018-Apr-19 14:00N 37°48' W 122°24'0 0.0
2018-Apr-19 13:30N 37°48' W 122°24'0 0.0
2018-Apr-19 13:01N 37°48' W 122°24'0 0.2
2018-Apr-19 12:30N 37°48' W 122°24'1 2.8
2018-Apr-19 12:01N 37°49' W 122°25'3 6.4
2018-Apr-19 11:30N 37°47' W 122°22'5 9.3
2018-Apr-19 11:00N 37°49' W 122°27'612.4
2018-Apr-19 10:30N 37°49' W 122°19'714.4
2018-Apr-19 10:00N 37°49' W 122°29'918.6
2018-Apr-19 09:31N 37°45' W 122°39'1122.1
2018-Apr-19 09:01N 37°49' W 122°26'5 8.9
2018-Apr-19 08:30N 37°48' W 122°21'510.6
2018-Apr-19 08:00N 37°43' W 122°19'712.8
2018-Apr-19 07:30N 37°48' W 122°24'0 0.0
2018-Apr-19 07:00N 37°48' W 122°24'0 0.0
2018-Apr-19 06:30N 37°48' W 122°24'0 0.0
2018-Apr-19 05:59N 37°48' W 122°24'0 0.0
2018-Apr-19 05:30N 37°48' W 122°24'3 5.2
2018-Apr-19 05:00N 37°47' W 122°21'3 5.2
2018-Apr-19 04:30N 37°48' W 122°24'0 0.1
2018-Apr-19 04:00N 37°48' W 122°24'0 0.0
2018-Apr-19 03:30N 37°48' W 122°24'0 0.0
2018-Apr-19 03:00N 37°48' W 122°24'2 4.8
2018-Apr-19 02:30N 37°48' W 122°21'1 1.1
2018-Apr-19 02:01N 37°48' W 122°21'4 7.3
2018-Apr-19 01:30N 37°49' W 122°26'714.6
2018-Apr-19 01:00N 37°43' W 122°20'4 9.0
2018-Apr-19 00:30N 37°48' W 122°20'3 6.0
2018-Apr-19 00:00N 37°48' W 122°24'0 0.0
2018-Apr-18 23:30N 37°48' W 122°24'0 0.0
2018-Apr-18 23:00N 37°48' W 122°24'0 0.0
2018-Apr-18 22:30N 37°48' W 122°24'1 2.5
2018-Apr-18 22:00N 37°49' W 122°25'0 0.0
2018-Apr-18 21:30N 37°49' W 122°25'4 7.5
2018-Apr-18 21:00N 37°47' W 122°21'611.6
2018-Apr-18 20:30N 37°49' W 122°28'1122.3
2018-Apr-18 20:00N 37°45' W 122°41'1019.2
2018-Apr-18 19:30N 37°49' W 122°30'5 9.4
2018-Apr-18 19:00N 37°48' W 122°24'0 0.0
2018-Apr-18 18:30N 37°48' W 122°24'0 0.0
2018-Apr-18 18:00N 37°48' W 122°24'0 0.0
2018-Apr-18 17:30N 37°48' W 122°24'0 0.0
2018-Apr-18 17:00N 37°48' W 122°24'0 0.0
2018-Apr-18 16:30N 37°48' W 122°24'0 0.0
2018-Apr-18 16:00N 37°48' W 122°24'0 0.0
2018-Apr-18 15:30N 37°48' W 122°24'0 0.0
2018-Apr-18 15:00N 37°48' W 122°24'0 0.0
2018-Apr-18 14:30N 37°48' W 122°24'1 1.4
2018-Apr-18 14:00N 37°49' W 122°23'1 1.3
2018-Apr-18 13:31N 37°48' W 122°24'4 7.4
2018-Apr-18 13:01N 37°48' W 122°19'4 7.4
2018-Apr-18 12:30N 37°48' W 122°24'0 0.0
2018-Apr-18 12:00N 37°48' W 122°24'0 0.0
2018-Apr-18 11:30N 37°48' W 122°24'3 5.5
2018-Apr-18 11:00N 37°46' W 122°21'3 5.5
2018-Apr-18 10:30N 37°48' W 122°24'0 0.0
2018-Apr-18 10:00N 37°48' W 122°24'0 0.0
2018-Apr-18 09:30N 37°48' W 122°24'0 0.0
2018-Apr-18 09:00N 37°48' W 122°24'0 0.0
2018-Apr-18 08:30N 37°48' W 122°24'0 0.0
2018-Apr-18 08:00N 37°48' W 122°24'0 0.0
2018-Apr-18 07:30N 37°48' W 122°24'0 0.0
2018-Apr-18 07:00N 37°48' W 122°24'0 0.0
2018-Apr-18 06:30N 37°48' W 122°24'0 0.0
2018-Apr-18 06:00N 37°48' W 122°24'0 0.0
2018-Apr-18 05:30N 37°48' W 122°24'4 8.1
2018-Apr-18 05:01N 37°48' W 122°19'612.3
2018-Apr-18 04:30N 37°49' W 122°26'2 4.4
2018-Apr-18 04:00N 37°48' W 122°24'0 0.0
2018-Apr-18 03:30N 37°48' W 122°24'0 0.0
2018-Apr-18 03:00N 37°48' W 122°24'0 0.0
2018-Apr-18 02:30N 37°48' W 122°24'0 0.0
2018-Apr-18 02:00N 37°48' W 122°24'0 0.0
2018-Apr-18 01:30N 37°48' W 122°24'0 0.0
2018-Apr-18 01:00N 37°48' W 122°24'0 0.0
2018-Apr-18 00:30N 37°48' W 122°24'0 0.0
2018-Apr-18 00:00N 37°48' W 122°24'2 4.4
2018-Apr-17 23:31N 37°48' W 122°21'2 3.0
2018-Apr-17 23:00N 37°48' W 122°23'1 1.4
2018-Apr-17 22:30N 37°48' W 122°24'0 0.0
2018-Apr-17 22:00N 37°48' W 122°24'0 0.0
2018-Apr-17 21:30N 37°48' W 122°24'1 2.8
2018-Apr-17 21:00N 37°48' W 122°22'4 8.8
2018-Apr-17 20:30N 37°49' W 122°28'3 6.9
2018-Apr-17 20:00N 37°48' W 122°23'1 1.0
2018-Apr-17 19:30N 37°48' W 122°24'0 0.0
2018-Apr-17 19:00N 37°48' W 122°24'3 6.9
2018-Apr-17 18:30N 37°49' W 122°28'510.8
2018-Apr-17 18:00N 37°48' W 122°21'1 1.7
2018-Apr-17 17:30N 37°49' W 122°20'2 4.3
2018-Apr-17 17:00N 37°47' W 122°21'3 5.3
2018-Apr-17 16:30N 37°48' W 122°24'0 0.2
2018-Apr-17 16:00N 37°48' W 122°24'0 0.3
2018-Apr-17 15:30N 37°48' W 122°24'4 8.5
2018-Apr-17 15:00N 37°48' W 122°18'0 0.0
2018-Apr-17 14:30N 37°48' W 122°18'2 4.5
2018-Apr-17 14:00N 37°48' W 122°21'2 3.8
2018-Apr-17 13:30N 37°48' W 122°19'0 0.2
2018-Apr-17 13:00N 37°48' W 122°19'4 7.8
2018-Apr-17 12:30N 37°48' W 122°24'4 7.3
2018-Apr-17 12:01N 37°48' W 122°19'4 7.1
2018-Apr-17 11:31N 37°48' W 122°24'3 5.5
2018-Apr-17 11:00N 37°46' W 122°21'3 5.3
2018-Apr-17 10:29N 37°48' W 122°24'0 0.0
2018-Apr-17 10:00N 37°48' W 122°24'1 2.3
2018-Apr-17 09:30N 37°47' W 122°23'1 2.4
2018-Apr-17 09:01N 37°46' W 122°22'815.8
2018-Apr-17 08:30N 37°54' W 122°26'611.2
2018-Apr-17 08:00N 37°48' W 122°24'0 0.0
2018-Apr-17 07:30N 37°48' W 122°24'0 0.0
2018-Apr-17 07:00N 37°48' W 122°24'3 5.3
2018-Apr-17 06:30N 37°48' W 122°20'5 9.3
2018-Apr-17 06:01N 37°44' W 122°20'5 9.9
2018-Apr-17 05:29N 37°48' W 122°24'0 0.8
2018-Apr-17 05:00N 37°48' W 122°24'0 0.7
2018-Apr-17 04:30N 37°48' W 122°24'0 0.0
2018-Apr-17 04:00N 37°48' W 122°24'0 0.2
2018-Apr-17 03:30N 37°48' W 122°24'5 9.9
2018-Apr-17 03:00N 37°44' W 122°20'5 9.9
2018-Apr-17 02:31N 37°48' W 122°24'0 0.0
2018-Apr-17 02:00N 37°48' W 122°24'0 0.0
2018-Apr-17 01:31N 37°48' W 122°24'0 0.0
2018-Apr-17 01:00N 37°48' W 122°24'0 0.0
2018-Apr-17 00:30N 37°48' W 122°24'0 0.0
2018-Apr-17 00:00N 37°48' W 122°24'0 0.0
2018-Apr-16 23:30N 37°48' W 122°24'0 0.0
2018-Apr-16 23:00N 37°48' W 122°24'0 0.0
2018-Apr-16 22:30N 37°48' W 122°24'0 0.0
2018-Apr-16 22:00N 37°48' W 122°24'0 0.0
2018-Apr-16 21:29N 37°48' W 122°24'0 0.0
2018-Apr-16 21:00N 37°48' W 122°24'0 0.0
2018-Apr-16 20:30N 37°48' W 122°24'917.7
2018-Apr-16 20:01N 37°47' W 122°35'3 6.0
2018-Apr-16 19:31N 37°48' W 122°31'611.9
2018-Apr-16 19:00N 37°48' W 122°24'2 3.9
2018-Apr-16 18:30N 37°48' W 122°21'2 3.9
2018-Apr-16 18:00N 37°46' W 122°21'3 6.0
2018-Apr-16 17:30N 37°48' W 122°24'  

Dump ship's entire track history